Time;durP1;ratioP1;P1;durP2;ratioP2;P2;SDS_P1;SDS_P2;PMS_P1;PMS_P2;Temp;Humidity;BMP_temperature;BMP_pressure;BME280_temperature;BME280_humidity;BME280_pressure;Samples;Min_cycle;Max_cycle;Signal;HPM_P1;HPM_P2
2022/06/14 00:00:53;;;;;;;59.00;38.58;;;;;;;16.23;91.58;98534.72;4974136;28;20348;-68
2022/06/14 00:02:22;;;;;;;51.15;35.63;;;;;;;16.25;91.46;98539.78;4974482;28;20039;-67
2022/06/14 00:04:48;;;;;;;61.17;37.55;;;;;;;16.22;90.89;98540.38;4973282;28;20043;-68
2022/06/14 00:07:13;;;;;;;54.08;36.55;;;;;;;16.20;91.47;98537.19;4974173;28;20448;-67
2022/06/14 00:09:39;;;;;;;48.05;33.13;;;;;;;16.18;90.98;98542.03;4973760;28;20045;-68
2022/06/14 00:12:06;;;;;;;59.80;37.13;;;;;;;16.12;90.51;98544.81;4973981;28;20489;-68
2022/06/14 00:14:31;;;;;;;51.90;34.00;;;;;;;16.13;91.11;98535.69;4973837;28;20051;-68
2022/06/14 00:16:57;;;;;;;59.25;38.20;;;;;;;16.11;91.60;98543.22;4956608;28;20063;-67
2022/06/14 00:19:22;;;;;;;50.35;34.78;;;;;;;16.10;91.11;98546.19;4973737;28;20051;-69
2022/06/14 00:21:48;;;;;;;49.42;32.65;;;;;;;16.06;90.36;98543.31;4973464;28;20039;-68
2022/06/14 00:24:14;;;;;;;48.55;33.33;;;;;;;16.05;90.32;98543.59;4973919;28;20038;-69
2022/06/14 00:26:40;;;;;;;45.72;31.10;;;;;;;16.03;89.37;98540.41;4973732;28;20504;-69
2022/06/14 00:29:05;;;;;;;49.50;30.38;;;;;;;16.01;89.70;98532.72;4956127;28;20051;-67
2022/06/14 00:31:34;;;;;;;53.13;34.45;;;;;;;16.00;90.60;98539.16;4940883;28;20086;-67
2022/06/14 00:33:59;;;;;;;70.20;41.50;;;;;;;16.00;90.95;98539.16;4973685;28;20051;-68
2022/06/14 00:36:32;;;;;;;77.97;44.97;;;;;;;16.00;91.38;98535.66;4973447;28;20041;-67
2022/06/14 00:39:05;;;;;;;64.13;39.83;;;;;;;16.01;91.30;98537.28;4973889;28;20461;-67
2022/06/14 00:41:39;;;;;;;91.00;49.38;;;;;;;16.03;91.79;98540.41;4956679;28;20138;-67
2022/06/14 00:44:08;;;;;;;137.32;65.05;;;;;;;16.03;91.88;98543.91;4973543;28;20501;-68
2022/06/14 00:47:06;;;;;;;209.80;73.13;;;;;;;16.03;92.53;98541.25;4972701;28;20256;-68
2022/06/14 00:49:52;;;;;;;139.77;59.88;;;;;;;16.00;91.96;98533.81;4940014;28;20428;-69
2022/06/14 00:52:20;;;;;;;108.15;48.88;;;;;;;15.95;90.59;98543.78;4973588;28;20039;-68
2022/06/14 00:54:49;;;;;;;93.50;45.70;;;;;;;15.89;90.47;98543.88;4955738;28;20053;-68
2022/06/14 00:57:19;;;;;;;86.80;43.75;;;;;;;15.92;89.53;98544.38;4956131;28;20169;-67
2022/06/14 00:59:53;;;;;;;99.72;40.67;;;;;;;15.94;88.34;98548.31;4972813;28;20050;-69
2022/06/14 01:02:23;;;;;;;111.32;44.65;;;;;;;15.95;88.69;98539.22;4940053;28;20041;-68
2022/06/14 01:04:49;;;;;;;159.30;47.97;;;;;;;15.97;89.32;98545.09;4973550;28;20046;-68
2022/06/14 01:07:33;;;;;;;151.75;35.38;;;;;;;15.94;89.23;98537.63;4973012;28;20042;-68
2022/06/14 01:10:25;;;;;;;171.55;34.65;;;;;;;15.93;88.75;98537.94;4973011;28;20047;-68
2022/06/14 01:12:55;;;;;;;59.25;28.95;;;;;;;15.93;89.06;98537.94;4956911;28;20043;-67
2022/06/14 01:15:23;;;;;;;82.38;29.85;;;;;;;15.93;89.09;98546.75;4955405;28;20126;-67
2022/06/14 01:18:03;;;;;;;47.13;29.25;;;;;;;15.92;89.88;98547.06;4955996;28;20121;-69
2022/06/14 01:20:30;;;;;;;107.03;33.28;;;;;;;15.94;89.22;98548.31;4973024;28;20039;-69
2022/06/14 01:22:56;;;;;;;118.90;36.67;;;;;;;15.98;89.38;98543.22;4973242;28;20488;-68
2022/06/14 01:25:24;;;;;;;49.85;30.52;;;;;;;16.07;89.31;98546.78;4955866;28;20049;-67
2022/06/14 01:27:51;;;;;;;37.25;27.77;;;;;;;16.26;88.40;98552.84;4955379;28;20034;-67
2022/06/14 01:30:22;;;;;;;36.15;25.98;;;;;;;16.43;86.48;98548.81;4955262;28;20073;-67
2022/06/14 01:33:10;;;;;;;35.08;26.48;;;;;;;16.55;86.11;98551.78;4955606;28;20042;-67
2022/06/14 01:35:38;;;;;;;32.45;24.85;;;;;;;16.62;84.84;98543.38;4955871;28;20043;-67
2022/06/14 01:38:10;;;;;;;34.28;25.27;;;;;;;16.68;82.96;98545.66;4955620;28;20050;-68
2022/06/14 01:41:02;;;;;;;34.97;26.42;;;;;;;16.64;82.75;98551.91;4973012;28;20043;-67
2022/06/14 01:43:42;;;;;;;30.98;23.38;;;;;;;16.60;81.95;98557.06;4972030;28;20043;-67
2022/06/14 01:46:14;;;;;;;27.20;21.80;;;;;;;16.52;81.91;98549.72;4972226;28;20050;-68
2022/06/14 01:48:45;;;;;;;26.15;20.83;;;;;;;16.50;81.76;98552.69;4972455;28;20086;-68
2022/06/14 01:51:51;;;;;;;29.02;21.42;;;;;;;16.48;81.78;98560.22;4972580;28;20054;-69
2022/06/14 01:54:38;;;;;;;29.08;20.35;;;;;;;16.40;81.93;98560.91;4941757;28;20051;-67
2022/06/14 01:57:04;;;;;;;32.45;22.80;;;;;;;16.42;82.15;98558.72;4972695;28;20043;-68
2022/06/14 01:59:41;;;;;;;32.00;22.35;;;;;;;16.46;82.65;98558.94;4955125;28;20043;-68
2022/06/14 02:02:10;;;;;;;28.38;21.73;;;;;;;16.62;82.40;98565.59;4972792;28;20038;-67
2022/06/14 02:04:45;;;;;;;27.05;21.65;;;;;;;16.71;82.11;98571.03;4922947;28;20523;-68
2022/06/14 02:07:40;;;;;;;29.05;21.98;;;;;;;16.77;82.19;98567.22;4972652;28;20074;-67
2022/06/14 02:10:14;;;;;;;28.00;21.85;;;;;;;16.77;81.67;98562.63;4955303;28;20142;-68
2022/06/14 02:12:49;;;;;;;23.45;19.63;;;;;;;16.85;80.91;98563.03;4939355;28;20126;-69
2022/06/14 02:15:48;;;;;;;23.20;19.35;;;;;;;16.91;80.40;98561.81;4972318;28;20070;-68
2022/06/14 02:18:40;;;;;;;23.27;18.55;;;;;;;17.00;80.20;98557.34;4955328;28;20191;-68
2022/06/14 02:21:43;;;;;;;22.80;18.98;;;;;;;17.14;78.75;98558.13;4956070;28;20050;-68
2022/06/14 02:24:23;;;;;;;20.40;17.63;;;;;;;17.19;78.83;98562.59;4956327;28;20050;-68
2022/06/14 02:26:55;;;;;;;20.40;18.15;;;;;;;17.23;78.35;98559.00;4954956;28;20065;-69
2022/06/14 02:29:43;;;;;;;20.42;17.80;;;;;;;17.39;77.14;98562.16;4958326;28;20101;-68
2022/06/14 02:32:14;;;;;;;20.88;18.38;;;;;;;17.57;76.62;98567.66;4958919;28;20096;-67
2022/06/14 02:34:44;;;;;;;22.52;19.33;;;;;;;17.79;75.58;98566.88;4976296;28;20051;-69
2022/06/14 02:37:34;;;;;;;25.13;20.10;;;;;;;18.11;74.19;98561.25;4976229;28;20039;-68
2022/06/14 02:40:06;;;;;;;21.83;18.27;;;;;;;18.57;72.13;98567.34;4975960;28;20070;-68
2022/06/14 02:42:44;;;;;;;23.20;18.85;;;;;;;18.91;70.42;98563.97;4942129;28;20074;-68
2022/06/14 02:45:35;;;;;;;21.52;17.08;;;;;;;19.40;68.44;98566.59;4958551;28;20463;-68
2022/06/14 02:48:13;;;;;;;20.30;17.63;;;;;;;19.62;67.48;98557.59;4958683;28;20126;-67
2022/06/14 02:50:52;;;;;;;21.08;18.80;;;;;;;19.98;66.78;98556.50;4958387;28;20054;-67
2022/06/14 02:53:23;;;;;;;21.88;19.02;;;;;;;20.13;66.04;98554.06;4942113;28;20497;-68
2022/06/14 02:55:54;;;;;;;23.38;20.15;;;;;;;20.08;66.54;98559.63;4975844;28;20050;-69
2022/06/14 02:58:24;;;;;;;26.83;22.63;;;;;;;20.08;66.51;98559.63;4958381;28;20047;-68
2022/06/14 03:01:08;;;;;;;29.98;22.88;;;;;;;19.91;67.15;98555.06;4942492;28;20531;-69
2022/06/14 03:03:40;;;;;;;27.15;22.20;;;;;;;19.98;66.87;98559.97;4957865;28;20051;-69
2022/06/14 03:06:13;;;;;;;25.60;22.38;;;;;;;20.12;66.60;98557.09;4958878;28;20089;-68
2022/06/14 03:08:49;;;;;;;28.67;23.70;;;;;;;20.16;66.13;98558.03;4957988;28;20042;-69
2022/06/14 03:11:45;;;;;;;30.08;24.70;;;;;;;20.00;66.76;98557.75;4942304;28;20046;-67
2022/06/14 03:14:18;;;;;;;35.20;26.02;;;;;;;19.63;68.20;98553.81;4955903;28;20050;-68
2022/06/14 03:16:44;;;;;;;35.35;25.98;;;;;;;19.49;68.87;98559.34;4938425;29;20106;-68
2022/06/14 03:19:16;;;;;;;41.45;29.00;;;;;;;19.41;69.43;98558.25;4938515;29;20047;-68
2022/06/14 03:21:55;;;;;;;48.33;30.17;;;;;;;19.39;69.90;98562.34;4967509;28;20034;-68
2022/06/14 03:24:33;;;;;;;54.13;32.55;;;;;;;19.25;70.56;98568.66;4957962;28;20058;-69
2022/06/14 03:27:18;;;;;;;52.80;31.73;;;;;;;19.20;70.93;98563.41;4941859;28;20501;-68
2022/06/14 03:29:53;;;;;;;145.23;35.13;;;;;;;18.99;71.67;98567.81;4957814;28;20058;-68
2022/06/14 03:33:00;;;;;;;160.40;35.45;;;;;;;18.76;73.43;98575.94;4941616;28;20496;-68
2022/06/14 03:35:41;;;;;;;83.47;33.10;;;;;;;18.65;74.07;98569.28;4953171;28;20641;-70
2022/06/14 03:38:26;;;;;;;110.15;35.75;;;;;;;18.47;75.00;98560.34;4974743;28;20042;-67
2022/06/14 03:40:52;;;;;;;86.88;34.15;;;;;;;18.63;74.89;98566.09;4956081;28;20085;-69
2022/06/14 03:43:18;;;;;;;100.85;33.15;;;;;;;18.46;75.22;98560.66;4974561;28;20541;-69
2022/06/14 03:46:01;;;;;;;217.95;38.45;;;;;;;18.57;75.23;98567.34;4957267;28;20050;-69
2022/06/14 03:48:28;;;;;;;94.82;37.05;;;;;;;18.55;76.12;98564.16;4941569;28;20055;-68
2022/06/14 03:51:32;;;;;;;82.53;36.42;;;;;;;18.67;74.68;98560.88;4974475;28;20081;-69
2022/06/14 03:54:34;;;;;;;97.32;38.80;;;;;;;18.74;75.12;98556.69;4906302;29;20055;-70
2022/06/14 03:57:15;;;;;;;83.00;34.53;;;;;;;18.76;75.27;98551.00;4953831;29;20159;-70
2022/06/14 03:59:47;;;;;;;65.85;33.03;;;;;;;18.79;74.87;98548.47;4956560;28;20043;-68
2022/06/14 04:02:53;;;;;;;62.85;32.35;;;;;;;18.63;75.97;98563.41;4974345;28;20064;-68
2022/06/14 04:05:22;;;;;;;77.78;34.25;;;;;;;18.57;76.39;98560.06;4956862;28;20061;-67
2022/06/14 04:07:53;;;;;;;74.50;34.33;;;;;;;18.38;77.00;98560.31;4941171;28;20042;-67
2022/06/14 04:10:30;;;;;;;125.95;36.22;;;;;;;18.29;77.43;98561.34;4957117;28;20043;-68
2022/06/14 04:13:08;;;;;;;106.47;36.28;;;;;;;18.21;77.80;98562.13;4974020;28;20043;-67
2022/06/14 04:15:43;;;;;;;75.72;35.38;;;;;;;18.09;78.05;98570.75;4956581;28;20205;-70
2022/06/14 04:18:38;;;;;;;67.07;35.15;;;;;;;18.17;77.65;98564.59;4956078;28;20066;-67
2022/06/14 04:21:30;;;;;;;99.70;35.75;;;;;;;18.25;77.18;98568.44;4974143;28;20065;-69
2022/06/14 04:24:13;;;;;;;103.05;37.67;;;;;;;18.22;77.63;98563.69;4956267;28;20054;-68
2022/06/14 04:26:39;;;;;;;122.10;39.38;;;;;;;18.23;77.88;98570.63;4940335;28;20472;-68
2022/06/14 04:29:08;;;;;;;79.53;37.75;;;;;;;18.32;77.25;98568.78;4973650;28;20046;-69
2022/06/14 04:31:39;;;;;;;157.90;40.28;;;;;;;18.37;76.57;98572.13;4973457;28;20039;-69
2022/06/14 04:34:14;;;;;;;117.07;37.95;;;;;;;18.32;76.91;98574.16;4940135;28;20050;-68
2022/06/14 04:36:48;;;;;;;168.38;39.80;;;;;;;18.14;77.39;98557.97;4970915;28;20117;-68
2022/06/14 04:39:20;;;;;;;69.15;36.70;;;;;;;18.26;77.82;98567.34;4973125;28;20049;-68
2022/06/14 04:41:51;;;;;;;164.52;40.38;;;;;;;18.23;78.10;98565.28;4955888;28;20090;-69
2022/06/14 04:44:20;;;;;;;113.65;38.65;;;;;;;18.37;77.60;98571.34;4939747;28;20555;-68
2022/06/14 04:46:53;;;;;;;102.72;39.03;;;;;;;18.39;77.22;98574.53;4955814;28;20150;-68
2022/06/14 04:49:21;;;;;;;130.52;38.30;;;;;;;18.39;77.03;98564.56;4956109;28;20051;-67
2022/06/14 04:52:02;;;;;;;104.85;39.47;;;;;;;18.37;77.79;98561.41;4972638;28;20050;-68
2022/06/14 04:54:47;;;;;;;75.68;38.60;;;;;;;18.36;77.69;98572.47;4973447;28;20106;-69
2022/06/14 04:57:28;;;;;;;138.95;40.60;;;;;;;18.27;78.09;98571.63;4972195;28;20349;-67
2022/06/14 05:00:16;;;;;;;66.43;39.15;;;;;;;18.46;77.61;98568.72;4939556;28;20525;-69
2022/06/14 05:02:49;;;;;;;68.72;40.17;;;;;;;18.64;77.27;98562.31;4951994;28;20129;-70
2022/06/14 05:05:32;;;;;;;72.75;39.22;;;;;;;18.89;76.49;98573.47;4936646;28;20406;-67
2022/06/14 05:08:03;;;;;;;105.70;42.60;;;;;;;18.93;76.26;98572.53;4939504;28;20039;-68
2022/06/14 05:10:37;;;;;;;74.38;40.35;;;;;;;18.84;76.48;98569.81;4922886;28;20467;-68
2022/06/14 05:13:11;;;;;;;77.97;42.13;;;;;;;18.80;76.78;98563.50;4955594;28;20488;-68
2022/06/14 05:15:43;;;;;;;66.53;39.67;;;;;;;18.94;76.69;98562.56;4972370;28;20063;-69
2022/06/14 05:18:25;;;;;;;67.50;40.55;;;;;;;19.12;76.49;98558.84;4953548;28;20062;-69
2022/06/14 05:21:17;;;;;;;65.55;40.22;;;;;;;19.16;75.88;98561.69;4923815;28;20051;-69
2022/06/14 05:23:45;;;;;;;67.22;39.40;;;;;;;19.11;76.13;98559.13;4955259;28;20392;-69
2022/06/14 05:26:16;;;;;;;77.47;41.25;;;;;;;19.04;76.22;98556.94;4971745;28;20043;-68
2022/06/14 05:29:00;;;;;;;66.97;41.00;;;;;;;19.01;76.74;98558.34;4970786;28;20421;-67
2022/06/14 05:31:35;;;;;;;73.80;42.38;;;;;;;18.99;76.87;98552.47;4950174;28;20129;-65
2022/06/14 05:34:06;;;;;;;79.80;44.33;;;;;;;19.00;76.81;98561.31;4990379;28;20046;-65
2022/06/14 05:36:39;;;;;;;67.65;41.65;;;;;;;19.09;76.69;98546.03;4972565;28;20050;-67
2022/06/14 05:39:31;;;;;;;71.43;43.20;;;;;;;19.16;76.72;98550.94;4954976;28;20046;-65
2022/06/14 05:42:05;;;;;;;71.35;42.13;;;;;;;19.19;76.59;98555.69;4970919;28;20118;-61
2022/06/14 05:44:35;;;;;;;70.30;41.35;;;;;;;19.10;76.88;98552.97;4954329;28;20253;-64
2022/06/14 05:47:18;;;;;;;73.90;42.03;;;;;;;19.19;76.60;98551.09;4972131;28;20049;-64
2022/06/14 05:49:49;;;;;;;73.15;42.13;;;;;;;19.24;76.74;98545.56;4955478;28;20054;-64
2022/06/14 05:52:22;;;;;;;78.85;43.13;;;;;;;19.18;77.05;98548.75;4922030;28;20041;-65
2022/06/14 05:55:10;;;;;;;73.63;41.30;;;;;;;19.32;76.96;98549.34;4952857;28;20053;-64
2022/06/14 05:57:53;;;;;;;75.70;41.92;;;;;;;19.63;76.05;98543.84;4942878;28;20567;-63
2022/06/14 06:00:43;;;;;;;74.30;42.88;;;;;;;19.99;75.65;98542.72;4954488;28;20045;-63
2022/06/14 06:03:24;;;;;;;67.90;42.08;;;;;;;20.26;74.43;98544.22;4971474;28;20065;-65
2022/06/14 06:06:13;;;;;;;66.70;42.05;;;;;;;20.36;73.42;98543.09;4975558;28;20038;-64
2022/06/14 06:08:43;;;;;;;69.38;41.63;;;;;;;20.46;72.97;98545.41;4956873;28;20061;-65
2022/06/14 06:11:17;;;;;;;65.88;42.55;;;;;;;20.65;71.98;98545.06;4974956;28;20284;-66
2022/06/14 06:13:51;;;;;;;62.15;39.85;;;;;;;20.90;71.36;98540.63;4973026;28;20061;-64
2022/06/14 06:16:41;;;;;;;62.70;40.70;;;;;;;21.09;70.25;98527.53;4956291;28;20085;-66
2022/06/14 06:19:24;;;;;;;61.03;38.40;;;;;;;21.43;70.21;98539.19;4956375;28;20051;-67
2022/06/14 06:22:00;;;;;;;64.57;39.95;;;;;;;21.50;69.51;98530.56;4956781;28;20438;-67
2022/06/14 06:24:37;;;;;;;65.55;39.95;;;;;;;21.61;68.92;98533.66;4939600;28;20042;-67
2022/06/14 06:27:08;;;;;;;63.03;41.42;;;;;;;21.54;69.02;98528.78;4947536;28;20039;-64
2022/06/14 06:29:53;;;;;;;64.65;42.83;;;;;;;21.58;68.92;98527.00;4956758;28;20109;-67
2022/06/14 06:32:20;;;;;;;67.90;44.28;;;;;;;21.58;68.92;98527.00;4957043;28;20097;-67
2022/06/14 06:34:48;;;;;;;65.50;43.17;;;;;;;21.53;69.23;98519.09;4940764;28;20045;-66
2022/06/14 06:37:18;;;;;;;63.65;42.35;;;;;;;21.62;69.18;98527.13;4957743;28;20064;-68
2022/06/14 06:39:51;;;;;;;63.30;42.45;;;;;;;21.67;68.88;98526.91;4956283;28;20047;-69
2022/06/14 06:42:25;;;;;;;64.00;41.65;;;;;;;21.68;69.56;98523.13;4940769;28;20038;-69
2022/06/14 06:45:16;;;;;;;62.28;40.33;;;;;;;22.07;68.18;98516.38;4955387;28;20169;-68
2022/06/14 06:47:56;;;;;;;;;;;;;;;22.20;67.84;98519.91;4947325;28;20050;-64
2022/06/14 06:50:25;;;;;;;60.05;39.40;;;;;;;22.22;68.22;98509.56;4939185;28;19930;-66
2022/06/14 06:53:15;;;;;;;63.03;40.13;;;;;;;22.39;68.34;98508.56;4956070;28;20043;-67
2022/06/14 06:55:53;;;;;;;60.70;41.25;;;;;;;22.32;68.45;98497.53;4973018;28;20428;-67
2022/06/14 06:58:45;;;;;;;60.78;40.95;;;;;;;22.40;67.06;98510.91;4973411;28;20113;-65
2022/06/14 07:01:18;;;;;;;65.07;42.33;;;;;;;22.27;67.66;98505.88;4971953;28;20146;-64
2022/06/14 07:04:02;;;;;;;63.33;42.33;;;;;;;22.25;67.81;98503.50;4968646;28;20042;-68
2022/06/14 07:06:50;;;;;;;58.90;39.90;;;;;;;22.33;67.85;98507.22;4973731;28;20078;-67
2022/06/14 07:09:39;;;;;;;64.50;42.38;;;;;;;22.47;67.29;98496.06;4949365;28;20054;-66
2022/06/14 07:12:12;;;;;;;60.70;40.97;;;;;;;22.47;67.71;98493.38;4926613;28;20038;-68
2022/06/14 07:15:27;;;;;;;58.38;42.58;;;;;;;22.41;67.23;98482.81;4937511;29;20051;-66
2022/06/14 07:18:06;;;;;;;61.90;41.40;;;;;;;22.53;67.49;98494.72;4867252;29;20484;-66
2022/06/14 07:20:44;;;;;;;61.30;42.45;;;;;;;22.36;67.59;98498.44;4951454;29;20142;-68
2022/06/14 07:23:15;;;;;;;59.38;41.70;;;;;;;22.38;67.52;98493.47;4953885;28;20167;-65
2022/06/14 07:25:51;;;;;;;62.05;40.55;;;;;;;22.55;66.92;98490.56;4971004;28;20457;-65
2022/06/14 07:28:27;;;;;;;59.47;40.22;;;;;;;22.60;66.87;98484.94;4973149;28;20050;-66
2022/06/14 07:30:57;;;;;;;59.85;40.80;;;;;;;22.75;66.29;98491.56;4940949;28;20055;-69
2022/06/14 07:33:24;;;;;;;59.03;40.75;;;;;;;22.73;65.99;98493.78;4956224;28;20531;-67
2022/06/14 07:35:53;;;;;;;54.83;40.65;;;;;;;22.61;67.20;98496.50;4940448;28;20098;-64
2022/06/14 07:38:48;;;;;;;56.05;40.33;;;;;;;22.70;66.33;98491.00;4955693;28;20070;-66
2022/06/14 07:41:26;;;;;;;52.47;39.17;;;;;;;22.87;66.09;98485.34;4939982;28;20054;-66
2022/06/14 07:44:08;;;;;;;55.47;40.13;;;;;;;22.90;66.22;98481.97;4937109;29;20102;-66
2022/06/14 07:46:43;;;;;;;53.90;39.38;;;;;;;22.97;65.95;98484.09;4938194;29;20153;-69
2022/06/14 07:49:14;;;;;;;50.75;36.83;;;;;;;23.04;65.96;98484.34;4970395;28;20055;-66
2022/06/14 07:51:44;;;;;;;55.83;37.90;;;;;;;22.90;65.57;98471.94;4941088;28;20560;-64
2022/06/14 07:54:16;;;;;;;48.40;37.65;;;;;;;22.58;66.49;98472.88;4973459;28;20417;-67
2022/06/14 07:57:10;;;;;;;50.92;37.50;;;;;;;22.36;67.39;98471.44;4973096;28;20058;-63
2022/06/14 08:01:07;;;;;;;50.05;37.17;;;;;;;22.48;67.91;98476.84;4944702;28;20062;-65
2022/06/14 08:02:44;;;;;;;51.38;37.75;;;;;;;22.63;67.12;98475.38;4971686;28;20054;-65
2022/06/14 08:05:16;;;;;;;52.92;37.30;;;;;;;22.82;66.62;98474.75;4972551;28;20089;-67
2022/06/14 08:07:42;;;;;;;54.17;37.33;;;;;;;22.94;65.87;98463.94;4939609;28;20050;-70
2022/06/14 08:10:18;;;;;;;49.80;36.05;;;;;;;23.05;65.56;98469.69;4956380;28;20501;-66
2022/06/14 08:12:58;;;;;;;46.60;34.65;;;;;;;22.97;66.05;98459.78;4974183;28;20043;-67
2022/06/14 08:15:35;;;;;;;53.33;36.08;;;;;;;22.99;66.41;98465.66;4940591;28;20142;-69
2022/06/14 08:18:14;;;;;;;50.75;36.22;;;;;;;23.03;66.00;98461.13;4973943;28;20054;-70
2022/06/14 08:20:56;;;;;;;51.78;36.70;;;;;;;23.09;65.69;98454.38;4973995;28;20050;-68
2022/06/14 08:23:40;;;;;;;47.05;34.78;;;;;;;23.12;65.48;98446.34;4940837;28;20057;-68
2022/06/14 08:26:31;;;;;;;41.03;32.08;;;;;;;23.19;65.00;98451.16;4973405;28;20149;-68
2022/06/14 08:29:13;;;;;;;38.67;29.48;;;;;;;23.30;63.75;98451.47;4956443;28;20389;-69
2022/06/14 08:31:59;;;;;;;42.40;28.88;;;;;;;23.35;62.81;98459.31;4973794;28;20504;-68
2022/06/14 08:34:36;;;;;;;34.38;23.70;;;;;;;23.25;62.80;98446.31;4939632;28;20054;-68
2022/06/14 08:37:17;;;;;;;28.42;22.02;;;;;;;23.16;62.33;98445.66;4973710;28;20478;-68
2022/06/14 08:39:50;;;;;;;34.70;24.20;;;;;;;23.45;61.76;98442.63;4956429;28;20047;-68
2022/06/14 08:42:30;;;;;;;34.83;25.48;;;;;;;23.72;60.88;98435.63;4956356;28;20075;-68
2022/06/14 08:45:03;;;;;;;32.50;24.75;;;;;;;24.02;60.66;98433.25;4956328;28;20134;-68
2022/06/14 08:47:39;;;;;;;31.25;23.08;;;;;;;24.28;59.85;98431.16;4973380;28;20046;-68
2022/06/14 08:50:43;;;;;;;22.42;19.98;;;;;;;24.37;58.21;98439.88;4973603;28;20089;-69
2022/06/14 08:53:30;;;;;;;24.30;17.13;;;;;;;24.30;57.29;98429.69;4973639;28;20489;-68
2022/06/14 08:56:09;;;;;;;23.55;19.20;;;;;;;24.29;58.29;98433.50;4955792;28;20133;-67
2022/06/14 08:58:46;;;;;;;19.38;14.85;;;;;;;24.43;55.02;98431.16;4955247;28;20050;-68
2022/06/14 09:02:03;;;;;;;24.25;12.52;;;;;;;25.04;51.91;98423.56;4955663;28;20272;-68
2022/06/14 09:05:06;;;;;;;19.02;11.55;;;;;;;25.51;51.98;98428.75;4915763;28;20055;-69
2022/06/14 09:08:00;;;;;;;24.88;19.58;;;;;;;25.36;53.55;98418.78;4973401;28;20451;-70
2022/06/14 09:11:00;;;;;;;22.48;19.25;;;;;;;25.37;53.27;98418.41;4955946;28;20402;-68
2022/06/14 09:13:44;;;;;;;;;;;;;;;25.49;53.12;98417.47;4973251;28;20057;-68
2022/06/14 09:16:32;;;;;;;21.83;16.10;;;;;;;25.99;52.72;98410.19;4972826;28;19932;-69
2022/06/14 09:19:16;;;;;;;14.70;11.80;;;;;;;26.32;49.28;98395.16;4955801;28;20043;-69
2022/06/14 09:22:07;;;;;;;13.60;10.25;;;;;;;26.55;47.77;98392.41;4972992;28;20034;-70
2022/06/14 09:24:35;;;;;;;10.80;9.05;;;;;;;26.44;45.57;98386.00;4972900;28;20046;-70
2022/06/14 09:27:19;;;;;;;10.05;7.97;;;;;;;26.35;44.05;98393.66;4972888;28;20074;-69
2022/06/14 09:30:22;;;;;;;10.45;6.40;;;;;;;26.15;43.32;98387.53;4972581;28;20529;-69
2022/06/14 09:33:09;;;;;;;7.22;6.53;;;;;;;26.27;43.34;98381.91;4972910;28;20436;-68
2022/06/14 09:35:43;;;;;;;8.93;6.55;;;;;;;26.25;42.92;98370.63;4972788;28;20389;-69
2022/06/14 09:38:27;;;;;;;7.43;6.60;;;;;;;26.32;43.39;98370.72;4972834;28;20500;-68
2022/06/14 09:41:01;;;;;;;11.38;6.65;;;;;;;26.37;43.09;98364.97;4972452;28;20047;-70
2022/06/14 09:43:55;;;;;;;10.65;7.07;;;;;;;26.38;42.82;98363.81;4972402;28;20202;-69
2022/06/14 09:46:23;;;;;;;12.77;6.80;;;;;;;26.36;42.84;98355.28;4972436;28;20469;-69
2022/06/14 09:49:17;;;;;;;9.15;6.32;;;;;;;26.25;42.91;98354.34;4938975;28;20540;-69
2022/06/14 09:52:33;;;;;;;7.47;6.65;;;;;;;26.47;42.60;98345.34;4972282;28;20051;-69
2022/06/14 09:55:44;;;;;;;10.23;6.43;;;;;;;26.49;42.10;98342.22;4893488;29;20064;-68
2022/06/14 09:58:28;;;;;;;11.30;6.30;;;;;;;26.31;42.25;98342.00;4971780;28;20046;-69
2022/06/14 10:01:07;;;;;;;11.88;6.97;;;;;;;26.26;42.21;98345.03;4972303;28;20428;-68
2022/06/14 10:04:04;;;;;;;10.45;6.13;;;;;;;26.49;42.18;98348.47;4972673;28;20078;-68
2022/06/14 10:06:37;;;;;;;16.80;6.80;;;;;;;26.75;41.53;98338.69;4972202;28;20057;-68
2022/06/14 10:09:31;;;;;;;10.60;6.57;;;;;;;26.90;41.08;98334.22;4972185;28;20469;-68
2022/06/14 10:12:27;;;;;;;8.73;6.15;;;;;;;27.08;40.73;98340.63;4972347;28;20330;-68
2022/06/14 10:15:22;;;;;;;7.20;6.50;;;;;;;27.38;42.56;98326.97;4972456;28;20062;-69
2022/06/14 10:18:00;;;;;;;9.90;6.00;;;;;;;27.23;40.12;98327.97;4971984;28;20070;-67
2022/06/14 10:20:49;;;;;;;11.65;6.47;;;;;;;26.93;41.14;98320.66;4954102;28;20082;-69
2022/06/14 10:23:41;;;;;;;14.02;6.53;;;;;;;27.06;40.74;98321.19;4973114;28;20043;-70
2022/06/14 10:29:09;;;;;;;11.43;6.70;;;;;;;27.45;39.63;98323.53;4955361;28;20047;-69
2022/06/14 10:32:06;;;;;;;7.30;6.05;;;;;;;27.31;39.46;98310.56;4938755;28;20046;-69
2022/06/14 10:34:45;;;;;;;11.77;7.45;;;;;;;27.49;40.07;98312.66;4971687;28;20054;-69
2022/06/14 10:37:36;;;;;;;7.77;6.33;;;;;;;27.79;40.37;98307.84;4954322;28;20038;-69
2022/06/14 10:40:11;;;;;;;11.05;6.80;;;;;;;27.68;39.82;98306.19;4938586;28;20061;-69
2022/06/14 10:43:05;;;;;;;7.28;6.25;;;;;;;27.66;38.24;98300.34;4954717;28;20157;-68
2022/06/14 10:45:42;;;;;;;7.70;6.20;;;;;;;27.41;38.13;98300.91;4954904;28;20055;-71
2022/06/14 10:48:14;;;;;;;10.10;6.43;;;;;;;27.44;38.42;98292.00;4971605;28;20042;-69
2022/06/14 10:50:49;;;;;;;8.68;6.32;;;;;;;27.43;38.59;98289.66;4975416;28;20058;-69
2022/06/14 10:53:48;;;;;;;14.38;6.55;;;;;;;27.34;37.86;98292.72;4975759;28;20318;-69
2022/06/14 10:56:51;;;;;;;8.38;6.43;;;;;;;27.06;38.08;98296.72;4975517;28;20049;-69
2022/06/14 10:59:55;;;;;;;10.63;5.60;;;;;;;26.88;37.79;98293.00;4974770;28;20157;-68
2022/06/14 11:02:58;;;;;;;10.15;6.50;;;;;;;26.96;37.03;98284.56;4956942;28;20053;-68
2022/06/14 11:05:58;;;;;;;6.35;5.15;;;;;;;26.90;36.95;98275.16;4974544;28;20571;-67
2022/06/14 11:08:56;;;;;;;10.00;5.57;;;;;;;26.72;37.95;98274.97;4954434;28;20047;-67
2022/06/14 11:11:34;;;;;;;15.60;6.30;;;;;;;26.71;37.23;98281.59;4944152;28;20552;-69
2022/06/14 11:14:13;;;;;;;8.98;5.28;;;;;;;26.74;36.52;98269.19;4974098;28;20047;-70
2022/06/14 11:16:48;;;;;;;6.03;5.32;;;;;;;26.72;36.19;98268.78;4957793;28;20440;-68
2022/06/14 11:19:31;;;;;;;9.48;5.97;;;;;;;26.84;36.69;98257.63;4957471;28;20043;-65
2022/06/14 11:22:22;;;;;;;12.65;5.45;;;;;;;26.95;36.62;98255.03;4975111;28;20520;-67
2022/06/14 11:25:01;;;;;;;10.65;5.03;;;;;;;26.88;36.34;98246.78;4974483;28;20406;-68
2022/06/14 11:27:36;;;;;;;9.43;5.03;;;;;;;26.95;36.21;98249.59;4941815;28;20043;-67
2022/06/14 11:30:12;;;;;;;10.68;5.43;;;;;;;27.01;37.18;98244.59;4957576;28;20050;-67
2022/06/14 11:33:22;;;;;;;17.00;5.65;;;;;;;27.06;36.04;98245.03;4974994;28;20062;-66
2022/06/14 11:36:24;;;;;;;14.77;5.63;;;;;;;27.13;37.55;98247.03;4938296;28;20460;-67
2022/06/14 11:39:31;;;;;;;8.82;4.60;;;;;;;27.11;35.96;98247.38;4973479;28;20059;-67
2022/06/14 11:42:02;;;;;;;6.32;5.30;;;;;;;27.25;37.53;98244.03;4932779;28;20051;-68
2022/06/14 11:45:06;;;;;;;12.60;4.93;;;;;;;27.37;36.41;98251.91;4957278;28;20046;-67
2022/06/14 11:47:42;;;;;;;10.45;4.90;;;;;;;27.37;34.45;98242.97;4909378;28;20053;-67
2022/06/14 11:50:08;;;;;;;11.80;5.07;;;;;;;27.40;34.13;98240.28;4957507;28;20473;-67
2022/06/14 11:53:11;;;;;;;8.10;5.18;;;;;;;27.48;34.13;98234.91;4974230;28;20050;-67
2022/06/14 11:56:03;;;;;;;11.82;5.10;;;;;;;27.54;33.67;98239.59;4973898;28;20070;-67
2022/06/14 11:58:50;;;;;;;5.85;4.55;;;;;;;27.42;33.73;98239.13;4953724;28;20446;-67
2022/06/14 12:01:25;;;;;;;10.75;4.60;;;;;;;27.42;33.66;98244.59;4936976;29;20055;-68
2022/06/14 12:04:12;;;;;;;7.47;5.13;;;;;;;27.47;34.07;98236.03;4960514;28;20041;-68
2022/06/14 12:07:06;;;;;;;8.57;4.68;;;;;;;27.51;35.82;98223.25;4956139;28;20043;-67
2022/06/14 12:09:39;;;;;;;10.90;5.10;;;;;;;27.62;34.93;98232.28;4956600;28;20054;-68
2022/06/14 12:12:29;;;;;;;11.82;4.72;;;;;;;27.55;35.77;98219.38;4940843;28;20057;-67
2022/06/14 12:14:55;;;;;;;14.38;5.05;;;;;;;27.53;35.80;98221.72;4973576;28;20086;-68
2022/06/14 12:17:33;;;;;;;7.82;4.88;;;;;;;27.35;36.36;98221.56;4973619;28;20125;-69
2022/06/14 12:20:05;;;;;;;8.63;4.55;;;;;;;27.27;36.22;98219.97;4940702;28;20066;-69